Aérodrome :
LOGIN :

S'inscrire | Disclaimer

   EN    FR    IT 

 










Légende :    VFR   VFR Marginal   IFR   IFR Intensif   IFR Très Intensif
Visi : 
Plafond : 
>= 8 km
>= 3000ft
5 à 8 km
1000 à 3000 ft
1500m à 5 km
500 à 1000 ft
800 à 1500m
200 à 500 ft
< 800m
< 200 ft
Symboles :   Orages  Brouillard  Fortes neiges  Fortes précipitations  Vent > 20 kt
SIGMETs :   Divers  Orages  Givrage  Turbulence  Onde Orograph.  Cendres Volcan.







- Altitude de l'aérodrome : 309 ft
- Code IATA : FNI
- Voir les cartes d'approche


LFTW - Nîmes Garons

DERNIER METAR :
  • 130400Z AUTO 13007KT 9999 FEW032 BKN048 OVC060 16/13 Q1025 TEMPO SHRA FEW020TCU

METARs EXPIRÉS :
  • 130330Z AUTO 14006KT 9999 SCT034 OVC060 16/13 Q1024 TEMPO SHRA FEW020TCU
  • 130300Z AUTO 14005KT 9999 BKN035 OVC054 16/13 Q1024 TEMPO SHRA FEW020TCU
  • 130230Z AUTO 12004KT 9999 BKN039 BKN049 OVC062 16/13 Q1024 TEMPO SHRA FEW020TCU
  • 130200Z AUTO 11005KT 9999 BKN035 OVC056 16/13 Q1024
  • 130130Z AUTO 12005KT 9999 SCT037 BKN046 BKN056 16/13 Q1024

TAF TAF LFTW
Valide du 13 à 03h jusqu'au 14 à 03h UTC


130200Z 1303/1403 07005KT 9999 BKN030
TEMPO 1303/1311 SHRA FEW020TCU
BECMG 1318/1320 01010KT
TEMPO 1320/1403 NSC
Pas de NOTAMs connus pour ce terrain.



MET'MAP, la Météo Aéronautique d'un coup d'oeil ! - Copyright ORBIFLY Décembre 2007 - Disclaimer

ORBIFLY MET'MAP TEAM :

Programmation & Développement : Alexandra Zaïnal
Conception & Développement : Baudouin d'Aumeries
Co-Programmation & Développement : Marc-Olivier Méhu
Soutien technique & logistique : Manuel Goepfert

Contact : metmap@orbifly.com




SOURCES & CREDITS :

   NOAA